createdAt,value
2019-04-30T00:02:27.191Z,30.30
2019-04-30T00:04:56.880Z,22.20
2019-04-30T00:07:28.706Z,23.50
2019-04-30T00:10:00.905Z,22.83
2019-04-30T00:12:38.013Z,23.43
2019-04-30T00:15:10.989Z,23.00
2019-04-30T00:17:40.278Z,24.43
2019-04-30T00:20:15.141Z,23.27
2019-04-30T00:22:50.324Z,22.20
2019-04-30T00:25:24.943Z,22.10
2019-04-30T00:27:55.931Z,24.43
2019-04-30T00:30:27.374Z,20.93
2019-04-30T00:32:59.082Z,22.73
2019-04-30T00:35:30.910Z,22.90
2019-04-30T00:38:02.488Z,21.80
2019-04-30T00:40:35.205Z,23.17
2019-04-30T00:43:08.995Z,22.77
2019-04-30T00:45:44.820Z,22.57
2019-04-30T00:48:19.339Z,24.00
2019-04-30T00:50:47.604Z,21.27
2019-04-30T00:53:19.520Z,22.97
2019-04-30T00:55:51.252Z,22.90
2019-04-30T00:58:28.510Z,22.27
2019-04-30T01:01:15.324Z,22.73
2019-04-30T01:03:52.849Z,20.77
2019-04-30T01:06:28.526Z,23.73
2019-04-30T01:09:04.532Z,22.37
2019-04-30T01:11:31.276Z,23.03
2019-04-30T01:14:03.174Z,23.00
2019-04-30T01:16:35.028Z,23.30
2019-04-30T01:19:10.011Z,22.10
2019-04-30T01:21:47.155Z,23.07
2019-04-30T01:24:14.068Z,24.17
2019-04-30T01:26:46.362Z,23.33
2019-04-30T01:29:19.290Z,22.07
2019-04-30T01:31:51.230Z,21.00
2019-04-30T01:34:23.204Z,22.40
2019-04-30T01:36:55.062Z,22.60
2019-04-30T01:39:28.511Z,22.43
2019-04-30T01:42:02.915Z,21.47
2019-04-30T01:44:35.212Z,22.60
2019-04-30T01:47:06.545Z,21.83
2019-04-30T01:49:42.743Z,20.50
2019-04-30T01:52:11.682Z,21.57
2019-04-30T01:54:43.399Z,19.40
2019-04-30T01:57:42.384Z,19.53
2019-04-30T02:00:25.274Z,20.10
2019-04-30T02:02:56.944Z,20.47
2019-04-30T02:05:28.845Z,19.60
2019-04-30T02:08:00.708Z,20.37
2019-04-30T02:10:32.676Z,20.00
2019-04-30T02:13:04.515Z,20.03
2019-04-30T02:15:36.154Z,18.37
2019-04-30T02:18:08.656Z,17.73
2019-04-30T02:20:40.316Z,18.07
2019-04-30T02:23:12.194Z,17.50
2019-04-30T02:25:44.234Z,18.00
2019-04-30T02:28:15.722Z,16.93
2019-04-30T02:30:50.078Z,17.10
2019-04-30T02:33:21.251Z,17.93
2019-04-30T02:36:13.577Z,18.00
2019-04-30T02:38:49.437Z,17.57
2019-04-30T02:41:24.004Z,16.53
2019-04-30T02:43:59.691Z,15.03
2019-04-30T02:46:32.483Z,15.37
2019-04-30T02:49:06.618Z,15.90
2019-04-30T02:51:40.176Z,14.57
2019-04-30T02:54:23.982Z,16.37
2019-04-30T02:57:06.471Z,15.23
2019-04-30T03:00:00.098Z,15.53
2019-04-30T03:02:33.230Z,15.60
2019-04-30T03:05:05.560Z,16.00
2019-04-30T03:07:37.426Z,14.60
2019-04-30T03:10:10.090Z,16.23
2019-04-30T03:12:42.667Z,14.80
2019-04-30T03:15:15.908Z,15.83
2019-04-30T03:17:54.483Z,17.27
2019-04-30T03:20:36.950Z,16.23
2019-04-30T03:23:09.820Z,16.30
2019-04-30T03:25:41.870Z,17.60
2019-04-30T03:28:13.640Z,15.07
2019-04-30T03:30:45.281Z,17.10
2019-04-30T03:33:17.203Z,16.67
2019-04-30T03:35:54.214Z,15.90
2019-04-30T03:38:22.220Z,16.37
2019-04-30T03:40:53.915Z,15.47
2019-04-30T03:43:25.770Z,15.00
2019-04-30T03:45:59.329Z,15.43
2019-04-30T03:48:31.058Z,16.77
2019-04-30T03:51:03.017Z,18.40
2019-04-30T03:53:35.795Z,17.00
2019-04-30T03:56:09.463Z,17.00
2019-04-30T03:58:41.201Z,16.60
2019-04-30T04:01:24.079Z,15.10
2019-04-30T04:04:16.850Z,17.93
2019-04-30T04:06:54.365Z,16.67
2019-04-30T04:09:32.206Z,17.70
2019-04-30T04:12:39.536Z,15.40
2019-04-30T04:15:11.249Z,14.83
2019-04-30T04:17:42.942Z,17.67
2019-04-30T04:20:14.920Z,16.83
2019-04-30T04:22:46.871Z,15.50
2019-04-30T04:25:20.482Z,17.20
2019-04-30T04:27:52.502Z,17.77
2019-04-30T04:30:24.445Z,16.60
2019-04-30T04:32:56.637Z,16.80
2019-04-30T04:35:29.980Z,16.40
2019-04-30T04:38:01.882Z,17.43
2019-04-30T04:40:33.736Z,17.30
2019-04-30T04:43:05.613Z,18.50
2019-04-30T04:45:40.505Z,20.17
2019-04-30T04:48:10.893Z,19.13
2019-04-30T04:50:42.817Z,18.03
2019-04-30T04:53:14.696Z,18.70
2019-04-30T04:55:46.633Z,19.00
2019-04-30T04:58:21.521Z,19.07
2019-04-30T05:00:52.270Z,17.77
2019-04-30T05:03:39.809Z,18.43
2019-04-30T05:06:11.952Z,19.00
2019-04-30T05:08:44.178Z,18.23
2019-04-30T05:11:15.808Z,17.33
2019-04-30T05:13:49.013Z,16.60
2019-04-30T05:16:21.157Z,17.90
2019-04-30T05:18:53.066Z,17.03
2019-04-30T05:21:25.130Z,17.50
2019-04-30T05:23:59.005Z,19.77
2019-04-30T05:26:30.883Z,19.00
2019-04-30T05:29:03.044Z,17.23
2019-04-30T05:31:35.010Z,16.93
2019-04-30T05:34:10.145Z,17.33
2019-04-30T05:36:40.604Z,17.43
2019-04-30T05:39:12.239Z,15.57
2019-04-30T05:41:44.140Z,17.53
2019-04-30T05:44:16.084Z,16.53
2019-04-30T05:46:49.388Z,15.70
2019-04-30T05:49:21.795Z,18.03
2019-04-30T05:51:55.967Z,11.37
2019-04-30T05:54:29.202Z,14.70
2019-04-30T05:57:01.410Z,13.63
2019-04-30T05:59:33.388Z,15.20
2019-04-30T06:02:05.744Z,15.40
2019-04-30T06:04:38.732Z,14.00
2019-04-30T06:07:10.854Z,15.10
2019-04-30T06:09:49.293Z,14.90
2019-04-30T06:12:35.690Z,13.87
2019-04-30T06:15:29.074Z,13.50
2019-04-30T06:18:10.748Z,13.33
2019-04-30T06:20:35.032Z,12.63
2019-04-30T06:23:09.118Z,11.63
2019-04-30T06:25:55.715Z,14.87
2019-04-30T06:28:15.370Z,11.07
2019-04-30T06:30:49.156Z,12.93
2019-04-30T06:33:20.852Z,13.80
2019-04-30T06:35:53.428Z,12.80
2019-04-30T06:38:25.868Z,13.30
2019-04-30T06:40:58.826Z,11.73
2019-04-30T06:43:31.588Z,11.53
2019-04-30T06:46:03.797Z,10.73
2019-04-30T06:48:36.152Z,11.13
2019-04-30T06:51:09.056Z,10.47
2019-04-30T06:53:41.172Z,11.23
2019-04-30T06:56:13.208Z,10.00
2019-04-30T06:58:45.418Z,10.10
2019-04-30T07:01:19.064Z,11.23
2019-04-30T07:03:51.372Z,9.50
2019-04-30T07:06:29.786Z,10.17
2019-04-30T07:09:15.810Z,10.10
2019-04-30T07:11:54.023Z,9.50
2019-04-30T07:14:33.871Z,10.00
2019-04-30T07:17:05.978Z,8.80
2019-04-30T07:19:52.440Z,10.13
2019-04-30T07:22:11.718Z,7.47
2019-04-30T07:24:43.957Z,9.87
2019-04-30T07:27:16.096Z,9.40
2019-04-30T07:29:49.553Z,9.10
2019-04-30T07:32:21.858Z,9.70
2019-04-30T07:34:53.714Z,9.27
2019-04-30T07:37:25.631Z,8.97
2019-04-30T07:39:58.919Z,10.33
2019-04-30T07:42:31.168Z,9.10
2019-04-30T07:45:03.198Z,10.50
2019-04-30T07:47:35.366Z,10.27
2019-04-30T07:50:07.071Z,8.93
2019-04-30T07:52:57.570Z,9.37
2019-04-30T07:55:13.181Z,9.93
2019-04-30T07:57:45.171Z,10.10
2019-04-30T08:00:19.190Z,9.83
2019-04-30T08:03:00.189Z,9.13
2019-04-30T08:05:40.000Z,9.50
2019-04-30T08:08:21.222Z,9.40
2019-04-30T08:10:44.392Z,9.60
2019-04-30T08:13:16.593Z,9.83
2019-04-30T08:15:49.530Z,8.10
2019-04-30T08:18:21.866Z,8.93
2019-04-30T08:20:54.072Z,8.10
2019-04-30T08:23:34.872Z,8.70
2019-04-30T08:25:59.814Z,8.23
2019-04-30T08:28:31.644Z,9.57
2019-04-30T08:31:03.632Z,8.77
2019-04-30T08:33:35.778Z,8.97
2019-04-30T08:36:09.460Z,8.80
2019-04-30T08:38:41.364Z,7.73
2019-04-30T08:41:13.505Z,8.50
2019-04-30T08:43:45.707Z,9.13
2019-04-30T08:46:19.006Z,8.83
2019-04-30T08:48:53.704Z,8.90
2019-04-30T08:51:25.132Z,8.67
2019-04-30T08:53:58.689Z,9.63
2019-04-30T08:56:30.826Z,8.93
2019-04-30T08:59:02.941Z,8.63
2019-04-30T09:01:34.755Z,8.17
2019-04-30T09:04:07.735Z,8.20
2019-04-30T09:06:40.202Z,8.00
2019-04-30T09:09:19.908Z,7.10
2019-04-30T09:11:55.667Z,7.33
2019-04-30T09:14:25.510Z,7.40
2019-04-30T09:16:59.404Z,7.00
2019-04-30T09:19:30.884Z,8.53
2019-04-30T09:22:02.732Z,8.53
2019-04-30T09:24:35.160Z,8.97
2019-04-30T09:27:10.608Z,10.93
2019-04-30T09:29:41.193Z,8.90
2019-04-30T09:32:13.364Z,9.13
2019-04-30T09:34:53.182Z,8.07
2019-04-30T09:37:25.472Z,7.43
2019-04-30T09:39:59.114Z,8.70
2019-04-30T09:42:31.136Z,8.23
2019-04-30T09:45:03.374Z,8.30
2019-04-30T09:47:35.785Z,8.40
2019-04-30T09:50:09.104Z,8.30
2019-04-30T09:52:41.540Z,7.80
2019-04-30T09:55:14.200Z,7.30
2019-04-30T09:57:46.338Z,7.47
2019-04-30T10:00:19.433Z,7.77
2019-04-30T10:02:52.615Z,7.00
2019-04-30T10:05:24.896Z,9.17
2019-04-30T10:07:59.211Z,6.63
2019-04-30T10:10:38.615Z,6.40
2019-04-30T10:13:10.452Z,7.67
2019-04-30T10:15:51.306Z,7.67
2019-04-30T10:18:23.483Z,7.83
2019-04-30T10:20:55.454Z,6.93
2019-04-30T10:23:27.571Z,7.80
2019-04-30T10:26:00.084Z,7.73
2019-04-30T10:28:33.550Z,6.90
2019-04-30T10:31:05.879Z,6.67
2019-04-30T10:33:38.628Z,7.57
2019-04-30T10:36:10.832Z,6.73
2019-04-30T10:38:42.866Z,7.77
2019-04-30T10:41:14.778Z,6.43
2019-04-30T10:43:49.134Z,7.73
2019-04-30T10:46:21.158Z,7.47
2019-04-30T10:48:52.530Z,9.10
2019-04-30T10:51:24.464Z,8.20
2019-04-30T10:53:56.428Z,7.77
2019-04-30T10:56:29.127Z,9.40
2019-04-30T10:59:01.384Z,6.37
2019-04-30T11:01:33.401Z,7.80
2019-04-30T11:04:06.923Z,10.77
2019-04-30T11:06:39.184Z,7.43
2019-04-30T11:09:12.265Z,8.00
2019-04-30T11:11:44.104Z,7.17
2019-04-30T11:14:16.468Z,7.10
2019-04-30T11:16:51.208Z,6.47
2019-04-30T11:19:22.108Z,7.77
2019-04-30T11:21:54.441Z,7.93
2019-04-30T11:24:36.520Z,7.60
2019-04-30T11:27:03.894Z,7.40
2019-04-30T11:29:36.584Z,7.23
2019-04-30T11:32:20.182Z,7.17
2019-04-30T11:34:52.790Z,6.80
2019-04-30T11:37:24.752Z,6.73
2019-04-30T11:39:56.569Z,6.47
2019-04-30T11:42:28.820Z,6.23
2019-04-30T11:45:01.046Z,6.53
2019-04-30T11:47:35.734Z,7.20
2019-04-30T11:50:10.986Z,6.87
2019-04-30T11:52:43.190Z,7.43
2019-04-30T11:55:15.408Z,7.60
2019-04-30T11:57:55.242Z,8.40
2019-04-30T12:00:33.444Z,6.63
2019-04-30T12:03:05.713Z,6.67
2019-04-30T12:05:38.920Z,6.37
2019-04-30T12:08:19.999Z,8.93
2019-04-30T12:11:05.554Z,4.77
2019-04-30T12:13:37.571Z,5.53
2019-04-30T12:16:09.711Z,7.47
2019-04-30T12:18:41.774Z,7.00
2019-04-30T12:21:14.910Z,6.17
2019-04-30T12:23:46.891Z,7.23
2019-04-30T12:26:19.100Z,6.70
2019-04-30T12:28:51.672Z,6.43
2019-04-30T12:31:23.740Z,6.67
2019-04-30T12:33:56.019Z,3.63
2019-04-30T12:36:28.979Z,6.93
2019-04-30T12:39:01.216Z,6.30
2019-04-30T12:41:33.528Z,5.97
2019-04-30T12:44:05.492Z,6.27
2019-04-30T12:46:38.720Z,7.23
2019-04-30T12:49:12.500Z,5.90
2019-04-30T12:52:08.799Z,5.90
2019-04-30T12:55:01.708Z,6.57
2019-04-30T12:57:58.184Z,7.70
2019-04-30T13:00:20.750Z,6.70
2019-04-30T13:02:52.534Z,6.70
2019-04-30T13:05:24.707Z,5.83
2019-04-30T13:07:59.451Z,6.40
2019-04-30T13:10:31.182Z,7.10
2019-04-30T13:13:04.021Z,5.50
2019-04-30T13:15:36.248Z,7.53
2019-04-30T13:18:09.535Z,6.03
2019-04-30T13:20:42.068Z,5.70
2019-04-30T13:23:14.336Z,6.40
2019-04-30T13:25:51.399Z,6.33
2019-04-30T13:28:21.972Z,8.37
2019-04-30T13:30:54.160Z,6.97
2019-04-30T13:33:50.942Z,7.80
2019-04-30T13:36:22.880Z,6.80
2019-04-30T13:39:04.644Z,6.60
2019-04-30T13:41:55.624Z,6.73
2019-04-30T13:44:32.427Z,7.17
2019-04-30T13:47:04.570Z,5.93
2019-04-30T13:49:44.363Z,9.80
2019-04-30T13:52:16.436Z,6.63
2019-04-30T13:54:48.406Z,6.50
2019-04-30T13:57:20.598Z,7.00
2019-04-30T13:59:52.860Z,7.50
2019-04-30T14:02:24.912Z,6.93
2019-04-30T14:05:17.946Z,7.67
2019-04-30T14:08:09.491Z,6.73
2019-04-30T14:10:45.208Z,7.07
2019-04-30T14:13:17.342Z,7.77
2019-04-30T14:15:49.158Z,6.13
2019-04-30T14:18:28.525Z,7.00
2019-04-30T14:20:55.188Z,6.80
2019-04-30T14:23:28.629Z,7.27
2019-04-30T14:26:01.767Z,6.47
2019-04-30T14:28:33.678Z,5.77
2019-04-30T14:31:05.680Z,6.53
2019-04-30T14:33:37.589Z,7.40
2019-04-30T14:36:09.726Z,8.13
2019-04-30T14:38:42.334Z,6.33
2019-04-30T14:41:15.052Z,7.03
2019-04-30T14:43:57.941Z,6.77
2019-04-30T14:46:50.631Z,5.07
2019-04-30T14:49:35.018Z,6.60
2019-04-30T14:52:09.194Z,5.33
2019-04-30T14:55:01.104Z,6.40
2019-04-30T14:58:03.846Z,6.50
2019-04-30T15:00:49.878Z,5.80
2019-04-30T15:03:22.391Z,7.27
2019-04-30T15:05:54.257Z,6.90
2019-04-30T15:08:26.386Z,7.20
2019-04-30T15:10:58.224Z,6.77
2019-04-30T15:13:30.286Z,7.20
2019-04-30T15:16:02.632Z,7.50
2019-04-30T15:18:34.733Z,7.40
2019-04-30T15:21:07.086Z,7.10
2019-04-30T15:23:58.568Z,7.57
2019-04-30T15:26:25.469Z,7.40
2019-04-30T15:28:59.892Z,7.83
2019-04-30T15:31:31.862Z,6.57
2019-04-30T15:34:12.610Z,7.10
2019-04-30T15:36:45.228Z,6.73
2019-04-30T15:39:30.672Z,6.40
2019-04-30T15:42:02.140Z,6.33
2019-04-30T15:44:40.266Z,6.77
2019-04-30T15:47:09.337Z,6.90
2019-04-30T15:49:41.480Z,6.30
2019-04-30T15:52:13.717Z,6.20
2019-04-30T15:54:45.894Z,6.97
2019-04-30T15:57:18.961Z,7.00
2019-04-30T15:59:51.080Z,6.70
2019-04-30T16:02:38.933Z,7.03
2019-04-30T16:05:29.708Z,6.77
2019-04-30T16:08:21.092Z,6.30
2019-04-30T16:11:14.410Z,7.00
2019-04-30T16:14:22.320Z,7.10
2019-04-30T16:17:20.479Z,6.80
2019-04-30T16:19:53.050Z,7.40
2019-04-30T16:22:25.580Z,7.73
2019-04-30T16:25:00.464Z,6.50
2019-04-30T16:27:31.420Z,6.07
2019-04-30T16:30:03.863Z,6.87
2019-04-30T16:32:35.852Z,6.53
2019-04-30T16:35:08.934Z,6.03
2019-04-30T16:37:41.060Z,5.70
2019-04-30T16:40:13.642Z,6.00
2019-04-30T16:42:45.774Z,5.50
2019-04-30T16:45:19.481Z,6.70
2019-04-30T16:47:51.739Z,5.90
2019-04-30T16:50:25.331Z,6.77
2019-04-30T16:52:57.090Z,6.03
2019-04-30T16:55:29.046Z,8.00
2019-04-30T16:58:00.945Z,6.70
2019-04-30T17:00:33.350Z,6.23
2019-04-30T17:03:11.157Z,6.20
2019-04-30T17:05:49.885Z,6.10
2019-04-30T17:08:42.956Z,6.30
2019-04-30T17:11:44.937Z,6.13
2019-04-30T17:14:18.164Z,6.60
2019-04-30T17:16:50.180Z,6.17
2019-04-30T17:19:22.106Z,6.73
2019-04-30T17:21:53.991Z,7.37
2019-04-30T17:24:26.392Z,6.47
2019-04-30T17:26:59.228Z,6.67
2019-04-30T17:29:31.574Z,7.10
2019-04-30T17:32:03.630Z,7.00
2019-04-30T17:34:35.315Z,7.23
2019-04-30T17:37:09.012Z,6.70
2019-04-30T17:39:41.200Z,6.47
2019-04-30T17:42:13.397Z,7.30
2019-04-30T17:44:56.108Z,6.40
2019-04-30T17:47:19.004Z,7.10
2019-04-30T17:49:50.884Z,8.10
2019-04-30T17:52:24.815Z,7.83
2019-04-30T17:54:56.978Z,6.87
2019-04-30T17:57:32.346Z,7.83
2019-04-30T18:00:15.880Z,8.27
2019-04-30T18:02:36.491Z,7.37
2019-04-30T18:05:09.105Z,7.80
2019-04-30T18:07:42.287Z,7.33
2019-04-30T18:10:16.322Z,7.63
2019-04-30T18:12:48.448Z,8.20
2019-04-30T18:15:23.209Z,8.13
2019-04-30T18:18:17.414Z,7.37
2019-04-30T18:21:03.081Z,7.37
2019-04-30T18:23:55.422Z,8.20
2019-04-30T18:26:27.395Z,8.53
2019-04-30T18:28:59.321Z,9.37
2019-04-30T18:31:31.601Z,9.60
2019-04-30T18:34:03.733Z,9.00
2019-04-30T18:36:35.611Z,8.23
2019-04-30T18:39:08.962Z,8.53
2019-04-30T18:41:41.033Z,8.33
2019-04-30T18:44:12.987Z,7.93
2019-04-30T18:46:44.940Z,9.33
2019-04-30T18:49:18.648Z,8.80
2019-04-30T18:51:50.586Z,8.93
2019-04-30T18:54:22.494Z,9.07
2019-04-30T18:56:54.561Z,11.00
2019-04-30T18:59:26.396Z,9.73
2019-04-30T19:01:58.488Z,11.23
2019-04-30T19:04:30.443Z,10.83
2019-04-30T19:07:10.666Z,9.07
2019-04-30T19:10:03.428Z,9.47
2019-04-30T19:12:52.690Z,8.57
2019-04-30T19:16:17.866Z,10.33
2019-04-30T19:18:36.004Z,8.87
2019-04-30T19:21:09.059Z,9.37
2019-04-30T19:23:41.307Z,8.90
2019-04-30T19:26:13.414Z,9.10
2019-04-30T19:28:45.420Z,10.83
2019-04-30T19:31:19.712Z,10.93
2019-04-30T19:33:51.268Z,10.33
2019-04-30T19:36:35.162Z,11.03
2019-04-30T19:38:56.860Z,9.67
2019-04-30T19:41:28.914Z,10.47
2019-04-30T19:44:00.877Z,11.43
2019-04-30T19:46:32.999Z,11.43
2019-04-30T19:52:08.521Z,10.50
2019-04-30T19:54:35.230Z,10.67
2019-04-30T19:57:07.200Z,14.50
2019-04-30T19:59:39.370Z,11.57
2019-04-30T20:02:11.319Z,13.13
2019-04-30T20:04:43.274Z,14.30
2019-04-30T20:07:22.867Z,12.20
2019-04-30T20:10:03.221Z,14.47
2019-04-30T20:12:29.044Z,12.40
2019-04-30T20:15:00.878Z,11.70
2019-04-30T20:17:32.800Z,11.43
2019-04-30T20:20:05.363Z,11.60
2019-04-30T20:22:38.922Z,11.00
2019-04-30T20:25:11.172Z,11.63
2019-04-30T20:27:43.303Z,11.33
2019-04-30T20:30:15.794Z,11.10
2019-04-30T20:32:51.400Z,11.27
2019-04-30T20:35:23.170Z,13.10
2019-04-30T20:38:34.783Z,15.90
2019-04-30T20:41:09.262Z,13.83
2019-04-30T20:43:49.413Z,12.63
2019-04-30T20:46:31.381Z,11.63
2019-04-30T20:48:55.207Z,12.70
2019-04-30T20:51:26.664Z,12.27
2019-04-30T20:53:59.231Z,12.33
2019-04-30T20:56:31.516Z,12.00
2019-04-30T20:59:07.645Z,12.53
2019-04-30T21:01:39.207Z,12.73
2019-04-30T21:04:10.357Z,10.97
2019-04-30T21:06:41.866Z,12.03
2019-04-30T21:09:13.912Z,13.87
2019-04-30T21:11:45.580Z,12.20
2019-04-30T21:14:19.171Z,14.43
2019-04-30T21:16:51.452Z,12.60
2019-04-30T21:19:23.298Z,11.53
2019-04-30T21:21:55.242Z,13.73
2019-04-30T21:24:27.149Z,12.73
2019-04-30T21:26:59.059Z,11.67
2019-04-30T21:29:31.119Z,11.93
2019-04-30T21:32:16.250Z,9.93
2019-04-30T21:35:07.970Z,12.07
2019-04-30T21:37:40.006Z,12.00
2019-04-30T21:40:12.256Z,13.43
2019-04-30T21:42:44.194Z,16.83
2019-04-30T21:45:23.495Z,14.50
2019-04-30T21:47:56.596Z,11.53
2019-04-30T21:50:29.653Z,11.73
2019-04-30T21:53:02.710Z,12.27
2019-04-30T21:55:34.453Z,12.97
2019-04-30T21:58:06.937Z,13.67
2019-04-30T22:00:58.202Z,13.77
2019-04-30T22:03:30.330Z,12.63
2019-04-30T22:06:02.116Z,12.57
2019-04-30T22:08:34.265Z,12.97
2019-04-30T22:11:06.125Z,12.87
2019-04-30T22:13:39.717Z,12.87
2019-04-30T22:16:11.585Z,14.47
2019-04-30T22:18:43.425Z,14.00
2019-04-30T22:21:15.401Z,12.73
2019-04-30T22:23:47.423Z,14.53
2019-04-30T22:26:18.948Z,12.60
2019-04-30T22:28:50.995Z,12.50
2019-04-30T22:31:23.098Z,12.23
2019-04-30T22:33:55.172Z,13.03
2019-04-30T22:36:35.908Z,12.27
2019-04-30T22:39:13.806Z,12.57
2019-04-30T22:41:46.382Z,12.73
2019-04-30T22:44:18.338Z,12.40
2019-04-30T22:46:50.334Z,12.70
2019-04-30T22:49:21.862Z,12.70
2019-04-30T22:51:53.690Z,13.40
2019-04-30T22:54:25.384Z,13.00
2019-04-30T22:56:57.210Z,15.07
2019-04-30T22:59:29.174Z,15.30
2019-04-30T23:02:25.608Z,13.17
2019-04-30T23:04:57.544Z,14.83
2019-04-30T23:07:29.774Z,14.67
2019-04-30T23:10:01.570Z,14.73
2019-04-30T23:12:35.222Z,13.70
2019-04-30T23:15:08.053Z,14.90
2019-04-30T23:17:39.956Z,15.03
2019-04-30T23:20:12.078Z,15.27
2019-04-30T23:22:43.908Z,15.37
2019-04-30T23:25:15.893Z,13.57
2019-04-30T23:27:47.520Z,14.80
2019-04-30T23:30:20.993Z,14.57
2019-04-30T23:32:52.648Z,14.00
2019-04-30T23:35:24.317Z,14.77
2019-04-30T23:37:56.021Z,15.73
2019-04-30T23:40:30.508Z,14.73
2019-04-30T23:43:02.270Z,13.60
2019-04-30T23:45:34.027Z,14.07
2019-04-30T23:48:06.045Z,13.20
2019-04-30T23:50:37.900Z,13.60
2019-04-30T23:53:09.812Z,13.43
2019-04-30T23:55:41.972Z,13.53
2019-04-30T23:58:13.565Z,13.10
